Flight Track Log - Related Links

Times and Time Zones

All times are in EDT time to prevent confusion due to time zone crossing. See the UPS1337 flight status page for this flight to view local times or setup timezone preferences in your user account.

Time Position Orientation Groundspeed Altitude Reporting Facility
EDT Latitude Longitude Course Direction KTS MPH feet Rate Location/Type
Tue 09:51:28 PM 27.9000 -82.6833 180° South 165 190 600  Level Tampa TRACON
Tue 09:52:10 PM 27.8667 -82.6833 180° South 172 198 2,600 2,235 Climbing Tampa TRACON
Tue 09:53:10 PM 27.8167 -82.6833 180° South 242 278 4,400 2,550 Climbing Tampa TRACON
Tue 09:54:10 PM 27.8167 -82.7667 270° West 288 331 7,700 2,363 Climbing Tampa TRACON
Tue 09:56:23 PM 27.9978 -82.7856 355° North 348 400 12,000 1,990 Climbing Miami Center
Tue 09:57:23 PM 28.1122 -82.7939 356° North 402 463 14,100 2,579 Climbing Miami Center
Tue 09:58:24 PM 28.2500 -82.8072 355° North 409 471 17,200 2,705 Climbing Miami Center
Tue 09:59:25 PM 28.3703 -82.8169 356° North 427 491 19,600 2,311 Climbing Miami Center
Tue 10:00:26 PM 28.4939 -82.8364 352° North 447 514 21,900 1,922 Climbing Miami Center
Tue 10:01:33 PM 28.6258 -82.8761 345° North 451 519 23,700 1,688 Climbing Jacksonville Center
Tue 10:02:34 PM 28.7531 -82.9114 346° North 456 525 25,500 1,875 Climbing Jacksonville Center
Tue 10:04:29 PM 29.0108 -83.0011 343° North 486 559 29,200 1,841 Climbing Miami Center
Tue 10:05:30 PM 29.1406 -83.0497 342° North 486 559 30,900 1,548 Climbing Miami Center
Tue 10:06:33 PM 29.2714 -83.0986 342° North 491 565 32,400 1,426 Climbing Miami Center
Tue 10:07:32 PM 29.4028 -83.1478 342° North 491 565 33,800 800 Climbing Miami Center
Tue 10:08:33 PM 29.5336 -83.1964 342° North 491 565 34,000 99 Climbing Miami Center
Tue 10:09:33 PM 29.6753 -83.2511 341° North 492 566 34,000  Level Jacksonville Center
Tue 10:14:20 PM 30.3231 -83.4952 342° North 509 586 34,000  Level FlightAware ADS-B (KONZ)
Tue 10:15:06 PM 30.4255 -83.5342 342° North 510 587 34,000  Level FlightAware ADS-B (KONZ)
Tue 10:15:48 PM 30.5209 -83.5705 342° North 508 585 34,000  Level FlightAware ADS-B (KONZ)
Tue 10:16:23 PM 30.5988 -83.6003 342° North 505 581 34,000  Level FlightAware ADS-B (KONZ)
Tue 10:16:53 PM 30.6632 -83.6216 348° North 504 580 34,000  Level FlightAware ADS-B (KONZ)
Tue 10:17:32 PM 30.7541 -83.6439 348° North 506 582 34,000  Level FlightAware ADS-B (KONZ)
Tue 10:18:03 PM 30.8253 -83.6613 348° North 507 583 34,000  Level FlightAware ADS-B (KONZ)
Tue 10:19:15 PM 30.9928 -83.7019 348° North 509 586 34,000  Level FlightAware ADS-B (KONZ)
Tue 10:19:47 PM 31.0664 -83.7197 348° North 509 586 34,000  Level FlightAware ADS-B (KONZ)
Tue 10:21:32 PM 31.3046 -83.7776 348° North 509 586 34,000  Level FlightAware ADS-B (KONZ)
Tue 10:22:23 PM 31.4019 -83.8028 348° North 504 580 34,000  Level Atlanta Center
Tue 10:23:23 PM 31.5461 -83.8414 347° North 504 580 34,000  Level Atlanta Center
Tue 10:24:23 PM 31.6547 -83.8681 348° North 498 573 34,000  Level Atlanta Center
Tue 10:25:23 PM 31.8217 -83.9094 348° North 504 580 34,000  Level Atlanta Center
Tue 10:26:23 PM 31.9533 -83.9408 349° North 498 573 34,000  Level Atlanta Center
Tue 10:27:23 PM 32.0867 -83.9728 349° North 488 562 34,000  Level Atlanta Center
Tue 10:28:23 PM 32.2161 -84.0192 343° North 483 556 34,000  Level Atlanta Center
Tue 10:29:23 PM 32.3456 -84.0733 341° North 483 556 34,000  Level Atlanta Center
Tue 10:30:23 PM 32.4814 -84.1053 349° North 488 562 34,000  Level Atlanta Center
Tue 10:31:23 PM 32.6150 -84.1375 349° North 488 562 34,000  Level Atlanta Center
Tue 10:32:23 PM 32.7339 -84.1672 348° North 488 562 34,000  Level Atlanta Center
Tue 10:33:23 PM 32.8717 -84.2019 348° North 488 562 34,000  Level Atlanta Center
Tue 10:34:23 PM 33.0114 -84.2369 348° North 493 567 34,000  Level Atlanta Center
Tue 10:35:23 PM 33.1492 -84.2694 349° North 498 573 34,000  Level Atlanta Center
Tue 10:41:10 PM 33.9955 -84.4806 348° North 509 586 34,000  Level FlightAware ADS-B (KDZJ)
Tue 10:41:49 PM 34.0868 -84.5038 348° North 507 583 34,000  Level FlightAware ADS-B (KDZJ)
Tue 10:42:30 PM 34.1821 -84.5278 348° North 506 582 34,000  Level FlightAware ADS-B (KDZJ)
Tue 10:43:09 PM 34.2755 -84.5426 354° North 520 598 34,000  Level FlightAware ADS-B (KDZJ)
Tue 10:43:49 PM 34.3714 -84.5554 354° North 517 595 34,000  Level FlightAware ADS-B (KDZJ)
Tue 10:44:29 PM 34.4655 -84.5678 354° North 502 578 34,000  Level FlightAware ADS-B (KDZJ)
Tue 10:45:10 PM 34.5609 -84.5790 355° North 501 577 34,000  Level FlightAware ADS-B (KDZJ)
Tue 10:45:49 PM 34.6539 -84.5895 355° North 515 593 34,000  Level FlightAware ADS-B (KDZJ)
Tue 10:46:29 PM 34.7487 -84.6002 355° North 517 595 34,000  Level FlightAware ADS-B (KDZJ)
Tue 10:47:09 PM 34.8446 -84.6115 355° North 516 594 34,000  Level FlightAware ADS-B (KDZJ)
Tue 10:47:49 PM 34.9393 -84.6225 355° North 516 594 34,000  Level FlightAware ADS-B (KDZJ)
Tue 10:48:30 PM 35.0365 -84.6339 355° North 520 598 34,000  Level FlightAware ADS-B (KDZJ)
Tue 10:49:09 PM 35.1314 -84.6452 355° North 518 596 34,000  Level FlightAware ADS-B (KDZJ)
Tue 10:49:48 PM 35.2251 -84.6563 354° North 520 598 34,000 -296 Level FlightAware ADS-B (KDZJ)
Tue 10:55:14 PM 35.2071 -84.6541 355° North 525 604 32,200 -809 Descending FlightAware ADS-B (KMDQ)
Tue 11:01:18 PM 36.8537 -84.8524 354° North 523 602 24,700 -1,380 Descending FlightAware ADS-B
Tue 11:02:55 PM 37.0959 -84.8736 North 501 577 21,600 -2,071 Descending FlightAware ADS-B
Tue 11:04:06 PM 37.2566 -84.8420 10° North 488 562 18,900 -2,340 Descending FlightAware ADS-B
Tue 11:05:16 PM 37.4104 -84.8106 10° North 462 532 16,100 -1,406 Descending FlightAware ADS-B
Tue 11:07:18 PM 37.6400 -84.7583 10° North 375 432 14,400 -1,016 Descending FlightAware ADS-B
Tue 11:08:19 PM 37.7281 -84.8060 296° West 303 349 13,000 -1,450 Descending FlightAware ADS-B
Tue 11:09:18 PM 37.7193 -84.8958 235° Southwest 258 297 11,500 -1,059 Descending FlightAware ADS-B
Tue 11:10:18 PM 37.6712 -84.9523 257° West 264 304 10,900 -645 Descending FlightAware ADS-B
Tue 11:11:19 PM 37.7076 -85.0331 316° Northwest 306 352 10,200 -356 Descending FlightAware ADS-B
Tue 11:12:16 PM 37.7694 -85.1107 314° West 302 348 10,200  Level FlightAware ADS-B
Tue 11:13:31 PM 37.8363 -85.2121 303° West 292 336 10,200  Level FlightAware ADS-B
Tue 11:14:31 PM 37.8777 -85.2942 302° West 292 336 10,200 -50 Level FlightAware ADS-B
Tue 11:15:31 PM 37.9224 -85.3835 303° West 290 334 10,100 -857 Descending FlightAware ADS-B
Tue 11:16:30 PM 37.9635 -85.4659 302° West 284 327 8,500 -1,500 Descending FlightAware ADS-B
Tue 11:17:31 PM 38.0073 -85.5533 302° West 276 318 7,100 -1,161 Descending FlightAware ADS-B
Tue 11:18:34 PM 38.0493 -85.6354 303° West 273 314 6,100 -429 Descending FlightAware ADS-B
Tue 11:19:37 PM 38.0927 -85.7220 302° West 272 313 6,200 48 Climbing FlightAware ADS-B
Tue 11:20:38 PM 38.1337 -85.8051 302° West 274 315 6,200 -619 Level FlightAware ADS-B
Tue 11:21:43 PM 38.1895 -85.8635 341° North 288 331 4,900 -1,043 Descending FlightAware ADS-B
Tue 11:22:33 PM 38.2588 -85.8920 342° North 280 322 4,200 -738 Descending FlightAware ADS-B
Tue 11:22:48 PM 38.2765 -85.8995 341° North 243 280 4,100  Descending FlightAware ADS-B
Tue 11:23:13 PM 38.3023 -85.9090 346° North 227 261 4,200 125 Climbing FlightAware ADS-B
Tue 11:23:36 PM 38.3170 -85.9135 347° North 223 257 4,200  Level FlightAware ADS-B
Tue 11:24:01 PM 38.3459 -85.9223 347° North 222 255 4,200  Level FlightAware ADS-B
Tue 11:24:25 PM 38.3748 -85.9306 353° North 224 258 4,200 -171 Level FlightAware ADS-B
Tue 11:24:36 PM 38.3856 -85.9290 23° Northeast 222 255 4,100  Descending FlightAware ADS-B
Tue 11:24:50 PM 38.3971 -85.9190 50° Northeast 216 249 4,200 261 Climbing FlightAware ADS-B
Tue 11:24:59 PM 38.4015 -85.9091 70° East 209 241 4,200  Level FlightAware ADS-B
Tue 11:25:27 PM 38.4101 -85.8773 71° East 207 238 4,200  Level FlightAware ADS-B
Tue 11:25:38 PM 38.4120 -85.8696 82° East 203 234 4,200  Level FlightAware ADS-B
Tue 11:25:50 PM 38.4114 -85.8505 105° East 193 222 4,200  Level FlightAware ADS-B
Tue 11:26:12 PM 38.4024 -85.8340 137° Southeast 178 205 4,200  Level FlightAware ADS-B
Tue 11:26:27 PM 38.3916 -85.8227 148° Southeast 173 199 4,200  Level FlightAware ADS-B
Tue 11:26:51 PM 38.3738 -85.8114 161° South 166 191 4,200 -818 Level FlightAware ADS-B
Tue 11:27:11 PM 38.3593 -85.8057 164° South 163 188 3,600 -903 Descending FlightAware ADS-B
Tue 11:28:24 PM 38.3114 -85.7900 164° South 167 192 2,800 -537 Descending Indianapolis Center
Tue 11:29:25 PM 38.2731 -85.7781 166° South 155 178 2,400 -246 Descending Indianapolis Center
Tue 11:30:26 PM 38.2353 -85.7667 167° South 152 175 2,300 -98 Descending Indianapolis Center

Login

Don't have an account? Register now (free) for customized features, flight alerts, and more!